アピア の空港の天気 - METARとTAF

ファレオロ国際空港(サモア) ( NSFA / APW ) - サモア アピア
飛行場実況気象(Metar)
観測時間07/15 23:30 WSST (07/15 10:30 UTC)
風向・風速東 3m/s
視程6000m
天気現象
少しの雲 雲底高度 460m
少しの雲 雲底高度 550m
全天の8割程度の雲 雲底高度 980m
全天を覆う雲 雲底高度 3050m
気温25℃
湿度94%
気圧1011hPa
METARNSFA 151030Z 09006KT 6000 RA FEW015CB FEW018 BKN032 OVC100 25/24 Q1011 RMK CB TO SSE
過去の天気等 Google飛行場航空写真 Wunderground天気予報

過去48時間のMETAR

飛行場予報(TAF)
発表時間: 7/15 18:13 WSST (7/15 05:13 UTC)
予報対象時間: 15日19時 WSST ~ 16日19時 WSST
風向・風速東 4m/s
視程10km以上
全天の4割程度の雲 雲底高度 550m
全天の8割程度の雲 雲底高度 1220m
15日19時 WSST ~ 16日1時 WSST に 確率 40% で一時的に
風向・風速東南東 8m/s 瞬間風速 13m/s
視程5000m
天気現象雷雨
全天の8割程度の雲 雲底高度 460m
少しの積乱雲 雲底高度 520m
16日7時 WSST ~ 16日19時 WSST に 確率 30% で一時的に
視程5000m
天気現象雷雨
全天の8割程度の雲 雲底高度 460m
少しの積乱雲 雲底高度 520m
TAF NSFA 150513Z 1506/1606 08007KT 9999 SCT018 BKN040
PROB40 TEMPO 1506/1512 11015G25KT 5000 TSRA BKN015 FEW017CB
PROB30 TEMPO 1518/1606 5000 TSRA BKN015 FEW017CB